CDV weather

Campo David Airport
Huimanguillo, Tabasco, Mexico

Public forecast

Using degrees Celsius for public forecast. Weather courtesy of forecast.io.

Closest aviation weather report (METAR) to Campo David Airport

Report is more than 2 hours old.

Closest report is Carlos Rovirosa Pérez International Airport, 40.1 nm (74.3 km) ENE. Retrieved 2020/01/20 02:43 UTC (6 hours ago):

MMVA 200243Z 00000KT 7SM SCT015 BKN060 22/22 A3014 RMK SLP204 52021 934 8/750

Closest aviation forecast (TAF) to Campo David Airport

Closest forecast is Carlos Rovirosa Pérez International Airport, 40.1 nm (74.3 km) ENE. Retrieved 2020/01/20 06:45 UTC (2 hours ago):

TAF MMVA 200538Z 2006/2106 00000KT 6SM HZ SCT020 BKN060 FM201000 03005KT 4SM BR BKN010 OVC030 TEMPO 2011/2015 1SM BR -RA BKN005 OVC010 FM201800 33010KT 6SM HZ SCT020 BKN060 TEMPO 2021/2101 5SM TSRA BKN015CB